sensor_id;sensor_type;location;lat;lon;timestamp;temperature;humidity
47600;DHT22;33323;52.124;6.018;2024-01-30T00:02:18;7.90;99.90
47600;DHT22;33323;52.124;6.018;2024-01-30T00:04:45;7.90;99.90
47600;DHT22;33323;52.124;6.018;2024-01-30T00:07:12;7.90;99.90
47600;DHT22;33323;52.124;6.018;2024-01-30T00:09:39;7.90;99.90
47600;DHT22;33323;52.124;6.018;2024-01-30T00:12:07;7.90;99.90
47600;DHT22;33323;52.124;6.018;2024-01-30T00:14:34;7.80;99.90
47600;DHT22;33323;52.124;6.018;2024-01-30T00:17:01;7.80;99.90
47600;DHT22;33323;52.124;6.018;2024-01-30T00:19:28;7.80;99.90
47600;DHT22;33323;52.124;6.018;2024-01-30T00:21:55;7.70;99.90
47600;DHT22;33323;52.124;6.018;2024-01-30T00:24:23;7.70;99.90
47600;DHT22;33323;52.124;6.018;2024-01-30T00:26:50;7.70;99.90
47600;DHT22;33323;52.124;6.018;2024-01-30T00:29:17;7.60;99.90
47600;DHT22;33323;52.124;6.018;2024-01-30T00:31:46;7.60;99.90
47600;DHT22;33323;52.124;6.018;2024-01-30T00:34:13;7.50;99.90
47600;DHT22;33323;52.124;6.018;2024-01-30T00:36:40;7.50;99.90
47600;DHT22;33323;52.124;6.018;2024-01-30T00:39:07;7.50;99.90
47600;DHT22;33323;52.124;6.018;2024-01-30T00:41:36;7.50;99.90
47600;DHT22;33323;52.124;6.018;2024-01-30T00:44:03;7.50;99.90
47600;DHT22;33323;52.124;6.018;2024-01-30T00:46:30;7.40;99.90
47600;DHT22;33323;52.124;6.018;2024-01-30T00:48:57;7.40;99.90
47600;DHT22;33323;52.124;6.018;2024-01-30T00:51:24;7.40;99.90
47600;DHT22;33323;52.124;6.018;2024-01-30T00:53:51;7.30;99.90
47600;DHT22;33323;52.124;6.018;2024-01-30T00:56:19;7.30;99.90
47600;DHT22;33323;52.124;6.018;2024-01-30T00:58:46;7.30;99.90
47600;DHT22;33323;52.124;6.018;2024-01-30T01:01:13;7.30;99.90
47600;DHT22;33323;52.124;6.018;2024-01-30T01:03:41;7.30;99.90
47600;DHT22;33323;52.124;6.018;2024-01-30T01:06:10;7.20;99.90
47600;DHT22;33323;52.124;6.018;2024-01-30T01:08:37;7.20;99.90
47600;DHT22;33323;52.124;6.018;2024-01-30T01:11:05;7.10;99.90
47600;DHT22;33323;52.124;6.018;2024-01-30T01:13:32;7.10;99.90
47600;DHT22;33323;52.124;6.018;2024-01-30T01:15:59;7.10;99.90
47600;DHT22;33323;52.124;6.018;2024-01-30T01:18:26;7.10;99.90
47600;DHT22;33323;52.124;6.018;2024-01-30T01:20:54;7.10;99.90
47600;DHT22;33323;52.124;6.018;2024-01-30T01:23:21;7.20;99.90
47600;DHT22;33323;52.124;6.018;2024-01-30T01:25:48;7.20;99.90
47600;DHT22;33323;52.124;6.018;2024-01-30T01:28:15;7.20;99.90
47600;DHT22;33323;52.124;6.018;2024-01-30T01:30:42;7.20;99.90
47600;DHT22;33323;52.124;6.018;2024-01-30T01:33:09;7.10;99.90
47600;DHT22;33323;52.124;6.018;2024-01-30T01:35:37;7.10;99.90
47600;DHT22;33323;52.124;6.018;2024-01-30T01:38:04;7.20;99.90
47600;DHT22;33323;52.124;6.018;2024-01-30T01:40:31;7.10;99.90
47600;DHT22;33323;52.124;6.018;2024-01-30T01:42:58;7.10;99.90
47600;DHT22;33323;52.124;6.018;2024-01-30T01:45:25;7.20;99.90
47600;DHT22;33323;52.124;6.018;2024-01-30T01:47:52;7.20;99.90
47600;DHT22;33323;52.124;6.018;2024-01-30T01:50:21;7.10;99.90
47600;DHT22;33323;52.124;6.018;2024-01-30T01:52:50;7.10;99.90
47600;DHT22;33323;52.124;6.018;2024-01-30T01:55:20;7.10;99.90
47600;DHT22;33323;52.124;6.018;2024-01-30T01:57:53;7.10;99.90
47600;DHT22;33323;52.124;6.018;2024-01-30T02:00:21;7.00;99.90
47600;DHT22;33323;52.124;6.018;2024-01-30T02:02:49;7.00;99.90
47600;DHT22;33323;52.124;6.018;2024-01-30T02:05:16;7.00;99.90
47600;DHT22;33323;52.124;6.018;2024-01-30T02:07:43;6.90;99.90
47600;DHT22;33323;52.124;6.018;2024-01-30T02:10:11;6.90;99.90
47600;DHT22;33323;52.124;6.018;2024-01-30T02:12:38;6.90;99.90
47600;DHT22;33323;52.124;6.018;2024-01-30T02:15:07;6.80;99.90
47600;DHT22;33323;52.124;6.018;2024-01-30T02:17:34;6.70;99.90
47600;DHT22;33323;52.124;6.018;2024-01-30T02:20:02;6.80;99.90
47600;DHT22;33323;52.124;6.018;2024-01-30T02:22:32;6.70;99.90
47600;DHT22;33323;52.124;6.018;2024-01-30T02:25:00;6.60;99.90
47600;DHT22;33323;52.124;6.018;2024-01-30T02:27:27;6.60;99.90
47600;DHT22;33323;52.124;6.018;2024-01-30T02:29:54;6.60;99.90
47600;DHT22;33323;52.124;6.018;2024-01-30T02:32:21;6.50;99.90
47600;DHT22;33323;52.124;6.018;2024-01-30T02:34:48;6.50;99.90
47600;DHT22;33323;52.124;6.018;2024-01-30T02:37:16;6.50;99.90
47600;DHT22;33323;52.124;6.018;2024-01-30T02:39:43;6.50;99.90
47600;DHT22;33323;52.124;6.018;2024-01-30T02:42:10;6.40;99.90
47600;DHT22;33323;52.124;6.018;2024-01-30T02:44:37;6.30;99.90
47600;DHT22;33323;52.124;6.018;2024-01-30T02:47:04;6.30;99.90
47600;DHT22;33323;52.124;6.018;2024-01-30T02:49:31;6.30;99.90
47600;DHT22;33323;52.124;6.018;2024-01-30T02:51:58;6.30;99.90
47600;DHT22;33323;52.124;6.018;2024-01-30T02:54:26;6.30;99.90
47600;DHT22;33323;52.124;6.018;2024-01-30T02:56:52;6.30;99.90
47600;DHT22;33323;52.124;6.018;2024-01-30T02:59:19;6.40;99.90
47600;DHT22;33323;52.124;6.018;2024-01-30T03:01:46;6.40;99.90
47600;DHT22;33323;52.124;6.018;2024-01-30T03:04:14;6.50;99.90
47600;DHT22;33323;52.124;6.018;2024-01-30T03:06:46;6.60;99.90
47600;DHT22;33323;52.124;6.018;2024-01-30T03:09:18;6.70;99.90
47600;DHT22;33323;52.124;6.018;2024-01-30T03:11:45;6.60;99.90
47600;DHT22;33323;52.124;6.018;2024-01-30T03:14:12;6.50;99.90
47600;DHT22;33323;52.124;6.018;2024-01-30T03:16:39;6.50;99.90
47600;DHT22;33323;52.124;6.018;2024-01-30T03:19:07;6.40;99.90
47600;DHT22;33323;52.124;6.018;2024-01-30T03:21:37;6.40;99.90
47600;DHT22;33323;52.124;6.018;2024-01-30T03:24:04;6.50;99.90
47600;DHT22;33323;52.124;6.018;2024-01-30T03:26:32;6.50;99.90
47600;DHT22;33323;52.124;6.018;2024-01-30T03:28:59;6.50;99.90
47600;DHT22;33323;52.124;6.018;2024-01-30T03:31:26;6.60;99.90
47600;DHT22;33323;52.124;6.018;2024-01-30T03:33:53;6.60;99.90
47600;DHT22;33323;52.124;6.018;2024-01-30T03:36:20;6.60;99.90
47600;DHT22;33323;52.124;6.018;2024-01-30T03:38:47;6.70;99.90
47600;DHT22;33323;52.124;6.018;2024-01-30T03:41:14;6.70;99.90
47600;DHT22;33323;52.124;6.018;2024-01-30T03:43:41;6.80;99.90
47600;DHT22;33323;52.124;6.018;2024-01-30T03:46:08;6.80;99.90
47600;DHT22;33323;52.124;6.018;2024-01-30T03:48:35;6.80;99.90
47600;DHT22;33323;52.124;6.018;2024-01-30T03:51:03;6.70;99.90
47600;DHT22;33323;52.124;6.018;2024-01-30T03:53:30;6.80;99.90
47600;DHT22;33323;52.124;6.018;2024-01-30T03:55:57;6.80;99.90
47600;DHT22;33323;52.124;6.018;2024-01-30T03:58:24;6.90;99.90
47600;DHT22;33323;52.124;6.018;2024-01-30T04:00:51;6.90;99.90
47600;DHT22;33323;52.124;6.018;2024-01-30T04:03:18;6.80;99.90
47600;DHT22;33323;52.124;6.018;2024-01-30T04:05:45;6.80;99.90
47600;DHT22;33323;52.124;6.018;2024-01-30T04:08:12;6.70;99.90
47600;DHT22;33323;52.124;6.018;2024-01-30T04:10:39;6.60;99.90
47600;DHT22;33323;52.124;6.018;2024-01-30T04:13:06;6.70;99.90
47600;DHT22;33323;52.124;6.018;2024-01-30T04:15:38;6.70;99.90
47600;DHT22;33323;52.124;6.018;2024-01-30T04:18:05;6.80;99.90
47600;DHT22;33323;52.124;6.018;2024-01-30T04:20:32;6.80;99.90
47600;DHT22;33323;52.124;6.018;2024-01-30T04:23:00;6.80;99.90
47600;DHT22;33323;52.124;6.018;2024-01-30T04:25:27;6.80;99.90
47600;DHT22;33323;52.124;6.018;2024-01-30T04:27:54;6.80;99.90
47600;DHT22;33323;52.124;6.018;2024-01-30T04:30:21;6.80;99.90
47600;DHT22;33323;52.124;6.018;2024-01-30T04:32:48;6.70;99.90
47600;DHT22;33323;52.124;6.018;2024-01-30T04:35:15;6.70;99.90
47600;DHT22;33323;52.124;6.018;2024-01-30T04:37:43;6.80;99.90
47600;DHT22;33323;52.124;6.018;2024-01-30T04:40:10;6.80;99.90
47600;DHT22;33323;52.124;6.018;2024-01-30T04:42:37;6.90;99.90
47600;DHT22;33323;52.124;6.018;2024-01-30T04:45:05;6.90;99.90
47600;DHT22;33323;52.124;6.018;2024-01-30T04:47:33;6.90;99.90
47600;DHT22;33323;52.124;6.018;2024-01-30T04:50:01;7.00;99.90
47600;DHT22;33323;52.124;6.018;2024-01-30T04:52:28;7.00;99.90
47600;DHT22;33323;52.124;6.018;2024-01-30T04:54:55;7.00;99.90
47600;DHT22;33323;52.124;6.018;2024-01-30T04:57:23;7.10;99.90
47600;DHT22;33323;52.124;6.018;2024-01-30T04:59:50;7.10;99.90
47600;DHT22;33323;52.124;6.018;2024-01-30T05:02:17;7.10;99.90
47600;DHT22;33323;52.124;6.018;2024-01-30T05:04:44;7.10;99.90
47600;DHT22;33323;52.124;6.018;2024-01-30T05:07:11;7.20;99.90
47600;DHT22;33323;52.124;6.018;2024-01-30T05:09:38;7.10;99.90
47600;DHT22;33323;52.124;6.018;2024-01-30T05:12:07;7.20;99.90
47600;DHT22;33323;52.124;6.018;2024-01-30T05:14:34;7.20;99.90
47600;DHT22;33323;52.124;6.018;2024-01-30T05:17:01;7.20;99.90
47600;DHT22;33323;52.124;6.018;2024-01-30T05:19:29;7.30;99.90
47600;DHT22;33323;52.124;6.018;2024-01-30T05:21:57;7.30;99.90
47600;DHT22;33323;52.124;6.018;2024-01-30T05:24:24;7.30;99.90
47600;DHT22;33323;52.124;6.018;2024-01-30T05:26:53;7.30;99.90
47600;DHT22;33323;52.124;6.018;2024-01-30T05:29:20;7.30;99.90
47600;DHT22;33323;52.124;6.018;2024-01-30T05:31:48;7.30;99.90
47600;DHT22;33323;52.124;6.018;2024-01-30T05:34:16;7.40;99.90
47600;DHT22;33323;52.124;6.018;2024-01-30T05:36:43;7.40;99.90
47600;DHT22;33323;52.124;6.018;2024-01-30T05:39:10;7.40;99.90
47600;DHT22;33323;52.124;6.018;2024-01-30T05:41:37;7.40;99.90
47600;DHT22;33323;52.124;6.018;2024-01-30T05:44:04;7.50;99.90
47600;DHT22;33323;52.124;6.018;2024-01-30T05:46:31;7.40;99.90
47600;DHT22;33323;52.124;6.018;2024-01-30T05:49:00;7.40;99.90
47600;DHT22;33323;52.124;6.018;2024-01-30T05:51:27;7.40;99.90
47600;DHT22;33323;52.124;6.018;2024-01-30T05:53:55;7.40;99.90
47600;DHT22;33323;52.124;6.018;2024-01-30T05:56:22;7.40;99.90
47600;DHT22;33323;52.124;6.018;2024-01-30T05:58:49;7.40;99.90
47600;DHT22;33323;52.124;6.018;2024-01-30T06:01:19;7.40;99.90
47600;DHT22;33323;52.124;6.018;2024-01-30T06:03:47;7.40;99.90
47600;DHT22;33323;52.124;6.018;2024-01-30T06:06:14;7.40;99.90
47600;DHT22;33323;52.124;6.018;2024-01-30T06:08:41;7.40;99.90
47600;DHT22;33323;52.124;6.018;2024-01-30T06:11:11;7.50;99.90
47600;DHT22;33323;52.124;6.018;2024-01-30T06:13:39;7.50;99.90
47600;DHT22;33323;52.124;6.018;2024-01-30T06:16:09;7.50;99.90
47600;DHT22;33323;52.124;6.018;2024-01-30T06:18:38;7.50;99.90
47600;DHT22;33323;52.124;6.018;2024-01-30T06:21:05;7.50;99.90
47600;DHT22;33323;52.124;6.018;2024-01-30T06:23:36;7.50;99.90
47600;DHT22;33323;52.124;6.018;2024-01-30T06:26:03;7.50;99.90
47600;DHT22;33323;52.124;6.018;2024-01-30T06:28:30;7.50;99.90
47600;DHT22;33323;52.124;6.018;2024-01-30T06:30:58;7.50;99.90
47600;DHT22;33323;52.124;6.018;2024-01-30T06:33:25;7.50;99.90
47600;DHT22;33323;52.124;6.018;2024-01-30T06:35:52;7.50;99.90
47600;DHT22;33323;52.124;6.018;2024-01-30T06:38:19;7.60;99.90
47600;DHT22;33323;52.124;6.018;2024-01-30T06:40:46;7.70;99.90
47600;DHT22;33323;52.124;6.018;2024-01-30T06:43:13;7.70;99.90
47600;DHT22;33323;52.124;6.018;2024-01-30T06:45:40;7.80;99.90
47600;DHT22;33323;52.124;6.018;2024-01-30T06:48:09;7.80;99.90
47600;DHT22;33323;52.124;6.018;2024-01-30T06:50:36;7.80;99.90
47600;DHT22;33323;52.124;6.018;2024-01-30T06:53:04;8.00;99.90
47600;DHT22;33323;52.124;6.018;2024-01-30T06:55:31;8.00;99.90
47600;DHT22;33323;52.124;6.018;2024-01-30T06:57:58;8.00;99.90
47600;DHT22;33323;52.124;6.018;2024-01-30T07:00:26;8.00;99.90
47600;DHT22;33323;52.124;6.018;2024-01-30T07:02:53;8.10;99.90
47600;DHT22;33323;52.124;6.018;2024-01-30T07:05:21;8.10;99.90
47600;DHT22;33323;52.124;6.018;2024-01-30T07:07:49;8.10;99.90
47600;DHT22;33323;52.124;6.018;2024-01-30T07:10:16;8.10;99.90
47600;DHT22;33323;52.124;6.018;2024-01-30T07:12:43;8.20;99.90
47600;DHT22;33323;52.124;6.018;2024-01-30T07:15:11;8.20;99.90
47600;DHT22;33323;52.124;6.018;2024-01-30T07:17:40;8.20;99.90
47600;DHT22;33323;52.124;6.018;2024-01-30T07:20:08;8.20;99.90
47600;DHT22;33323;52.124;6.018;2024-01-30T07:22:40;8.20;99.90
47600;DHT22;33323;52.124;6.018;2024-01-30T07:25:08;8.30;99.90
47600;DHT22;33323;52.124;6.018;2024-01-30T07:27:36;8.40;99.90
47600;DHT22;33323;52.124;6.018;2024-01-30T07:30:04;8.40;99.90
47600;DHT22;33323;52.124;6.018;2024-01-30T07:32:31;8.40;99.90
47600;DHT22;33323;52.124;6.018;2024-01-30T07:34:59;8.50;99.90
47600;DHT22;33323;52.124;6.018;2024-01-30T07:37:34;8.60;99.90
47600;DHT22;33323;52.124;6.018;2024-01-30T07:40:03;8.60;99.90
47600;DHT22;33323;52.124;6.018;2024-01-30T07:42:32;8.70;99.90
47600;DHT22;33323;52.124;6.018;2024-01-30T07:45:03;8.70;99.90
47600;DHT22;33323;52.124;6.018;2024-01-30T07:47:31;8.70;99.90
47600;DHT22;33323;52.124;6.018;2024-01-30T07:49:58;8.80;99.90
47600;DHT22;33323;52.124;6.018;2024-01-30T07:52:26;8.80;99.90
47600;DHT22;33323;52.124;6.018;2024-01-30T07:54:54;8.70;99.90
47600;DHT22;33323;52.124;6.018;2024-01-30T07:57:22;8.80;99.90
47600;DHT22;33323;52.124;6.018;2024-01-30T07:59:50;8.80;99.90
47600;DHT22;33323;52.124;6.018;2024-01-30T08:02:17;8.80;99.90
47600;DHT22;33323;52.124;6.018;2024-01-30T08:04:45;8.80;99.90
47600;DHT22;33323;52.124;6.018;2024-01-30T08:07:16;8.80;99.90
47600;DHT22;33323;52.124;6.018;2024-01-30T08:09:44;8.80;99.90
47600;DHT22;33323;52.124;6.018;2024-01-30T08:12:12;8.90;99.90
47600;DHT22;33323;52.124;6.018;2024-01-30T08:14:40;8.80;99.90
47600;DHT22;33323;52.124;6.018;2024-01-30T08:17:08;8.90;99.90
47600;DHT22;33323;52.124;6.018;2024-01-30T08:19:35;9.00;99.90
47600;DHT22;33323;52.124;6.018;2024-01-30T08:22:03;9.00;99.90
47600;DHT22;33323;52.124;6.018;2024-01-30T08:24:31;9.00;99.90
47600;DHT22;33323;52.124;6.018;2024-01-30T08:26:58;9.10;99.90
47600;DHT22;33323;52.124;6.018;2024-01-30T08:29:28;9.10;99.90
47600;DHT22;33323;52.124;6.018;2024-01-30T08:31:55;9.10;99.90
47600;DHT22;33323;52.124;6.018;2024-01-30T08:34:23;9.10;99.90
47600;DHT22;33323;52.124;6.018;2024-01-30T08:36:51;9.10;99.90
47600;DHT22;33323;52.124;6.018;2024-01-30T08:39:19;9.20;99.90
47600;DHT22;33323;52.124;6.018;2024-01-30T08:41:47;9.30;99.90
47600;DHT22;33323;52.124;6.018;2024-01-30T08:44:15;9.30;99.90
47600;DHT22;33323;52.124;6.018;2024-01-30T08:46:46;9.30;99.90
47600;DHT22;33323;52.124;6.018;2024-01-30T08:49:16;9.50;99.90
47600;DHT22;33323;52.124;6.018;2024-01-30T08:51:44;9.50;99.90
47600;DHT22;33323;52.124;6.018;2024-01-30T08:54:11;9.50;99.90
47600;DHT22;33323;52.124;6.018;2024-01-30T08:56:38;9.50;99.90
47600;DHT22;33323;52.124;6.018;2024-01-30T08:59:06;9.50;99.90
47600;DHT22;33323;52.124;6.018;2024-01-30T09:01:34;9.60;99.90
47600;DHT22;33323;52.124;6.018;2024-01-30T09:04:02;9.60;99.90
47600;DHT22;33323;52.124;6.018;2024-01-30T09:06:29;9.60;99.90
47600;DHT22;33323;52.124;6.018;2024-01-30T09:08:57;9.60;99.90
47600;DHT22;33323;52.124;6.018;2024-01-30T09:11:24;9.60;99.90
47600;DHT22;33323;52.124;6.018;2024-01-30T09:13:52;9.70;99.90
47600;DHT22;33323;52.124;6.018;2024-01-30T09:16:20;9.80;99.90
47600;DHT22;33323;52.124;6.018;2024-01-30T09:18:47;9.80;99.90
47600;DHT22;33323;52.124;6.018;2024-01-30T09:21:15;9.80;99.90
47600;DHT22;33323;52.124;6.018;2024-01-30T09:23:43;9.80;99.90
47600;DHT22;33323;52.124;6.018;2024-01-30T09:26:10;9.90;99.90
47600;DHT22;33323;52.124;6.018;2024-01-30T09:28:39;9.80;99.90
47600;DHT22;33323;52.124;6.018;2024-01-30T09:31:10;9.80;99.90
47600;DHT22;33323;52.124;6.018;2024-01-30T09:33:38;9.90;99.90
47600;DHT22;33323;52.124;6.018;2024-01-30T09:36:06;9.90;99.90
47600;DHT22;33323;52.124;6.018;2024-01-30T09:38:34;9.90;99.90
47600;DHT22;33323;52.124;6.018;2024-01-30T09:41:08;9.90;99.90
47600;DHT22;33323;52.124;6.018;2024-01-30T09:43:38;10.00;99.90
47600;DHT22;33323;52.124;6.018;2024-01-30T09:46:12;10.10;99.90
47600;DHT22;33323;52.124;6.018;2024-01-30T09:48:46;10.10;99.90
47600;DHT22;33323;52.124;6.018;2024-01-30T09:51:15;10.20;99.90
47600;DHT22;33323;52.124;6.018;2024-01-30T09:53:43;10.20;99.90
47600;DHT22;33323;52.124;6.018;2024-01-30T09:56:12;10.20;99.90
47600;DHT22;33323;52.124;6.018;2024-01-30T09:58:40;10.30;99.90
47600;DHT22;33323;52.124;6.018;2024-01-30T10:01:09;10.30;99.90
47600;DHT22;33323;52.124;6.018;2024-01-30T10:03:38;10.40;99.90
47600;DHT22;33323;52.124;6.018;2024-01-30T10:06:06;10.40;99.90
47600;DHT22;33323;52.124;6.018;2024-01-30T10:08:34;10.50;99.90
47600;DHT22;33323;52.124;6.018;2024-01-30T10:11:01;10.50;99.90
47600;DHT22;33323;52.124;6.018;2024-01-30T10:13:30;10.50;99.90
47600;DHT22;33323;52.124;6.018;2024-01-30T10:15:58;10.60;99.90
47600;DHT22;33323;52.124;6.018;2024-01-30T10:18:26;10.60;99.90
47600;DHT22;33323;52.124;6.018;2024-01-30T10:20:54;10.70;99.90
47600;DHT22;33323;52.124;6.018;2024-01-30T10:23:22;10.70;99.90
47600;DHT22;33323;52.124;6.018;2024-01-30T10:25:51;10.70;99.90
47600;DHT22;33323;52.124;6.018;2024-01-30T10:28:19;10.70;99.90
47600;DHT22;33323;52.124;6.018;2024-01-30T10:30:46;10.70;99.90
47600;DHT22;33323;52.124;6.018;2024-01-30T10:33:14;10.60;99.90
47600;DHT22;33323;52.124;6.018;2024-01-30T10:35:41;10.60;99.90
47600;DHT22;33323;52.124;6.018;2024-01-30T10:38:11;10.60;99.90
47600;DHT22;33323;52.124;6.018;2024-01-30T10:40:42;10.60;99.90
47600;DHT22;33323;52.124;6.018;2024-01-30T10:43:11;10.60;99.90
47600;DHT22;33323;52.124;6.018;2024-01-30T10:45:44;10.60;99.90
47600;DHT22;33323;52.124;6.018;2024-01-30T10:48:19;10.60;99.90
47600;DHT22;33323;52.124;6.018;2024-01-30T10:50:54;10.60;99.90
47600;DHT22;33323;52.124;6.018;2024-01-30T10:53:27;10.70;99.90
47600;DHT22;33323;52.124;6.018;2024-01-30T10:55:58;10.60;99.90
47600;DHT22;33323;52.124;6.018;2024-01-30T10:58:27;10.70;99.90
47600;DHT22;33323;52.124;6.018;2024-01-30T11:00:55;10.80;99.90
47600;DHT22;33323;52.124;6.018;2024-01-30T11:03:24;10.80;99.90
47600;DHT22;33323;52.124;6.018;2024-01-30T11:05:52;10.80;99.90
47600;DHT22;33323;52.124;6.018;2024-01-30T11:08:26;10.90;99.90
47600;DHT22;33323;52.124;6.018;2024-01-30T11:10:56;11.00;99.90
47600;DHT22;33323;52.124;6.018;2024-01-30T11:13:30;11.10;99.90
47600;DHT22;33323;52.124;6.018;2024-01-30T11:16:05;11.20;99.90
47600;DHT22;33323;52.124;6.018;2024-01-30T11:18:33;11.40;99.90
47600;DHT22;33323;52.124;6.018;2024-01-30T11:21:05;11.40;99.90
47600;DHT22;33323;52.124;6.018;2024-01-30T11:23:33;11.50;99.90
47600;DHT22;33323;52.124;6.018;2024-01-30T11:26:01;11.60;99.90
47600;DHT22;33323;52.124;6.018;2024-01-30T11:28:33;11.60;99.90
47600;DHT22;33323;52.124;6.018;2024-01-30T11:31:06;11.60;99.90
47600;DHT22;33323;52.124;6.018;2024-01-30T11:33:34;11.60;99.90
47600;DHT22;33323;52.124;6.018;2024-01-30T11:36:03;11.50;99.90
47600;DHT22;33323;52.124;6.018;2024-01-30T11:38:34;11.50;99.90
47600;DHT22;33323;52.124;6.018;2024-01-30T11:41:02;11.40;99.90
47600;DHT22;33323;52.124;6.018;2024-01-30T11:43:30;11.40;99.90
47600;DHT22;33323;52.124;6.018;2024-01-30T11:45:58;11.30;99.90
47600;DHT22;33323;52.124;6.018;2024-01-30T11:48:26;11.40;99.90
47600;DHT22;33323;52.124;6.018;2024-01-30T11:50:54;11.30;99.90
47600;DHT22;33323;52.124;6.018;2024-01-30T11:53:21;11.40;99.90
47600;DHT22;33323;52.124;6.018;2024-01-30T11:55:50;11.40;99.90
47600;DHT22;33323;52.124;6.018;2024-01-30T11:58:17;11.50;99.90
47600;DHT22;33323;52.124;6.018;2024-01-30T12:00:55;11.50;99.90
47600;DHT22;33323;52.124;6.018;2024-01-30T12:03:24;11.50;99.90
47600;DHT22;33323;52.124;6.018;2024-01-30T12:06:00;11.50;99.90
47600;DHT22;33323;52.124;6.018;2024-01-30T12:08:30;11.50;99.90
47600;DHT22;33323;52.124;6.018;2024-01-30T12:10:58;11.30;99.90
47600;DHT22;33323;52.124;6.018;2024-01-30T12:13:26;11.30;99.90
47600;DHT22;33323;52.124;6.018;2024-01-30T12:16:00;11.30;99.90
47600;DHT22;33323;52.124;6.018;2024-01-30T12:18:28;11.30;99.90
47600;DHT22;33323;52.124;6.018;2024-01-30T12:20:59;11.20;99.90
47600;DHT22;33323;52.124;6.018;2024-01-30T12:23:28;11.30;99.90
47600;DHT22;33323;52.124;6.018;2024-01-30T12:25:57;11.30;99.90
47600;DHT22;33323;52.124;6.018;2024-01-30T12:28:24;11.30;99.90
47600;DHT22;33323;52.124;6.018;2024-01-30T12:30:56;11.30;99.90
47600;DHT22;33323;52.124;6.018;2024-01-30T12:33:26;11.30;99.90
47600;DHT22;33323;52.124;6.018;2024-01-30T12:36:02;11.40;99.90
47600;DHT22;33323;52.124;6.018;2024-01-30T12:38:30;11.30;99.90
47600;DHT22;33323;52.124;6.018;2024-01-30T12:40:58;11.50;99.90
47600;DHT22;33323;52.124;6.018;2024-01-30T12:43:25;11.50;99.90
47600;DHT22;33323;52.124;6.018;2024-01-30T12:46:04;11.40;99.90
47600;DHT22;33323;52.124;6.018;2024-01-30T12:48:33;11.40;99.90
47600;DHT22;33323;52.124;6.018;2024-01-30T12:51:01;11.30;99.90
47600;DHT22;33323;52.124;6.018;2024-01-30T12:53:29;11.30;99.90
47600;DHT22;33323;52.124;6.018;2024-01-30T12:55:56;11.30;99.90
47600;DHT22;33323;52.124;6.018;2024-01-30T12:58:25;11.20;99.90
47600;DHT22;33323;52.124;6.018;2024-01-30T13:00:53;11.30;99.90
47600;DHT22;33323;52.124;6.018;2024-01-30T13:03:22;11.20;99.90
47600;DHT22;33323;52.124;6.018;2024-01-30T13:05:49;11.20;99.90
47600;DHT22;33323;52.124;6.018;2024-01-30T13:08:18;11.20;99.90
47600;DHT22;33323;52.124;6.018;2024-01-30T13:10:45;11.10;99.90
47600;DHT22;33323;52.124;6.018;2024-01-30T13:13:16;11.00;99.90
47600;DHT22;33323;52.124;6.018;2024-01-30T13:15:48;10.90;99.90
47600;DHT22;33323;52.124;6.018;2024-01-30T13:18:15;10.90;99.90
47600;DHT22;33323;52.124;6.018;2024-01-30T13:20:43;10.90;99.90
47600;DHT22;33323;52.124;6.018;2024-01-30T13:23:11;10.90;99.90
47600;DHT22;33323;52.124;6.018;2024-01-30T13:25:38;10.80;99.90
47600;DHT22;33323;52.124;6.018;2024-01-30T13:28:05;10.70;99.90
47600;DHT22;33323;52.124;6.018;2024-01-30T13:30:33;10.70;99.90
47600;DHT22;33323;52.124;6.018;2024-01-30T13:33:00;10.60;99.90
47600;DHT22;33323;52.124;6.018;2024-01-30T13:35:28;10.50;99.90
47600;DHT22;33323;52.124;6.018;2024-01-30T13:37:55;10.40;99.90
47600;DHT22;33323;52.124;6.018;2024-01-30T13:40:23;10.40;99.90
47600;DHT22;33323;52.124;6.018;2024-01-30T13:42:50;10.40;99.90
47600;DHT22;33323;52.124;6.018;2024-01-30T13:45:17;10.40;99.90
47600;DHT22;33323;52.124;6.018;2024-01-30T13:47:47;10.30;99.90
47600;DHT22;33323;52.124;6.018;2024-01-30T13:50:15;10.30;99.90
47600;DHT22;33323;52.124;6.018;2024-01-30T13:52:43;10.10;99.90
47600;DHT22;33323;52.124;6.018;2024-01-30T13:55:12;9.90;99.90
47600;DHT22;33323;52.124;6.018;2024-01-30T13:57:40;9.90;99.90
47600;DHT22;33323;52.124;6.018;2024-01-30T14:00:08;9.80;99.90
47600;DHT22;33323;52.124;6.018;2024-01-30T14:02:39;9.80;99.90
47600;DHT22;33323;52.124;6.018;2024-01-30T14:05:07;9.70;99.90
47600;DHT22;33323;52.124;6.018;2024-01-30T14:07:37;9.70;99.90
47600;DHT22;33323;52.124;6.018;2024-01-30T14:10:10;9.70;99.90
47600;DHT22;33323;52.124;6.018;2024-01-30T14:12:42;9.70;99.90
47600;DHT22;33323;52.124;6.018;2024-01-30T14:15:15;9.70;99.90
47600;DHT22;33323;52.124;6.018;2024-01-30T14:17:55;9.60;99.90
47600;DHT22;33323;52.124;6.018;2024-01-30T14:20:25;9.70;99.90
47600;DHT22;33323;52.124;6.018;2024-01-30T14:22:52;9.70;99.90
47600;DHT22;33323;52.124;6.018;2024-01-30T14:25:23;9.70;99.90
47600;DHT22;33323;52.124;6.018;2024-01-30T14:27:52;9.70;99.90
47600;DHT22;33323;52.124;6.018;2024-01-30T14:30:20;9.70;99.90
47600;DHT22;33323;52.124;6.018;2024-01-30T14:32:48;9.60;99.90
47600;DHT22;33323;52.124;6.018;2024-01-30T14:35:19;9.50;99.90
47600;DHT22;33323;52.124;6.018;2024-01-30T14:37:48;9.50;99.90
47600;DHT22;33323;52.124;6.018;2024-01-30T14:40:15;9.40;99.90
47600;DHT22;33323;52.124;6.018;2024-01-30T14:42:44;9.40;99.90
47600;DHT22;33323;52.124;6.018;2024-01-30T14:45:11;9.30;99.90
47600;DHT22;33323;52.124;6.018;2024-01-30T14:47:39;9.30;99.90
47600;DHT22;33323;52.124;6.018;2024-01-30T14:50:08;9.20;99.90
47600;DHT22;33323;52.124;6.018;2024-01-30T14:52:36;9.20;99.90
47600;DHT22;33323;52.124;6.018;2024-01-30T14:55:07;9.10;99.90
47600;DHT22;33323;52.124;6.018;2024-01-30T14:57:36;9.10;99.90
47600;DHT22;33323;52.124;6.018;2024-01-30T15:00:05;9.10;99.90
47600;DHT22;33323;52.124;6.018;2024-01-30T15:02:34;9.00;99.90
47600;DHT22;33323;52.124;6.018;2024-01-30T15:05:02;9.00;99.90
47600;DHT22;33323;52.124;6.018;2024-01-30T15:07:31;9.00;99.90
47600;DHT22;33323;52.124;6.018;2024-01-30T15:10:07;9.00;99.90
47600;DHT22;33323;52.124;6.018;2024-01-30T15:12:37;9.00;99.90
47600;DHT22;33323;52.124;6.018;2024-01-30T15:15:07;9.00;99.90
47600;DHT22;33323;52.124;6.018;2024-01-30T15:17:38;9.00;99.90
47600;DHT22;33323;52.124;6.018;2024-01-30T15:20:06;9.00;99.90
47600;DHT22;33323;52.124;6.018;2024-01-30T15:22:34;9.00;99.90
47600;DHT22;33323;52.124;6.018;2024-01-30T15:25:02;9.00;99.90
47600;DHT22;33323;52.124;6.018;2024-01-30T15:27:30;9.00;99.90
47600;DHT22;33323;52.124;6.018;2024-01-30T15:29:58;9.00;99.90
47600;DHT22;33323;52.124;6.018;2024-01-30T15:32:26;9.00;99.90
47600;DHT22;33323;52.124;6.018;2024-01-30T15:34:53;8.90;99.90
47600;DHT22;33323;52.124;6.018;2024-01-30T15:37:24;8.90;99.90
47600;DHT22;33323;52.124;6.018;2024-01-30T15:39:51;8.90;99.90
47600;DHT22;33323;52.124;6.018;2024-01-30T15:42:19;8.80;99.90
47600;DHT22;33323;52.124;6.018;2024-01-30T15:44:46;8.80;99.90
47600;DHT22;33323;52.124;6.018;2024-01-30T15:47:14;8.90;99.90
47600;DHT22;33323;52.124;6.018;2024-01-30T15:49:41;8.80;99.90